createdAt,value
2023-01-08T00:01:07.577Z,100402.84
2023-01-08T00:03:34.525Z,100394.16
2023-01-08T00:06:06.471Z,100397.06
2023-01-08T00:08:33.259Z,100387.25
2023-01-08T00:10:59.893Z,100382.66
2023-01-08T00:13:26.930Z,100377.16
2023-01-08T00:15:54.057Z,100377.16
2023-01-08T00:18:21.032Z,100379.84
2023-01-08T00:20:49.090Z,100363.84
2023-01-08T00:23:18.125Z,100370.91
2023-01-08T00:25:44.835Z,100367.41
2023-01-08T00:28:11.381Z,100359.53
2023-01-08T00:30:38.171Z,100358.81
2023-01-08T00:33:04.710Z,100359.03
2023-01-08T00:35:31.189Z,100345.69
2023-01-08T00:37:57.643Z,100351.28
2023-01-08T00:40:24.155Z,100352.47
2023-01-08T00:42:50.613Z,100344.72
2023-01-08T00:45:17.024Z,100329.59
2023-01-08T00:47:43.483Z,100316.16
2023-01-08T00:50:10.691Z,100315.31
2023-01-08T00:52:37.196Z,100326.91
2023-01-08T00:55:03.965Z,100320.56
2023-01-08T00:57:38.403Z,100315.94
2023-01-08T01:00:06.925Z,100316.72
2023-01-08T01:02:35.296Z,100308.66
2023-01-08T01:05:02.084Z,100314.03
2023-01-08T01:07:28.589Z,100312.19
2023-01-08T01:09:55.035Z,100313.78
2023-01-08T01:12:21.520Z,100301.88
2023-01-08T01:14:48.019Z,100301.53
2023-01-08T01:17:14.488Z,100313.66
2023-01-08T01:19:41.277Z,100306.97
2023-01-08T01:22:07.806Z,100293.22
2023-01-08T01:24:34.436Z,100291.06
2023-01-08T01:27:01.178Z,100297.69
2023-01-08T01:29:27.664Z,100292.81
2023-01-08T01:31:57.519Z,100298.00
2023-01-08T01:34:24.414Z,100296.03
2023-01-08T01:36:50.904Z,100300.34
2023-01-08T01:39:17.377Z,100286.78
2023-01-08T01:41:45.715Z,100296.53
2023-01-08T01:44:39.487Z,100303.78
2023-01-08T01:47:14.618Z,100315.59
2023-01-08T01:49:45.219Z,100310.00
2023-01-08T01:52:11.791Z,100307.31
2023-01-08T01:54:38.320Z,100310.09
2023-01-08T01:57:06.927Z,100308.28
2023-01-08T01:59:33.339Z,100318.06
2023-01-08T02:02:00.320Z,100316.00
2023-01-08T02:04:27.054Z,100311.59
2023-01-08T02:07:30.756Z,100316.75
2023-01-08T02:10:04.147Z,100312.59
2023-01-08T02:12:35.802Z,100322.72
2023-01-08T02:15:14.341Z,100321.09
2023-01-08T02:18:05.825Z,100310.34
2023-01-08T02:20:37.432Z,100313.13
2023-01-08T02:23:30.309Z,100296.25
2023-01-08T02:26:21.643Z,100293.69
2023-01-08T02:28:55.295Z,100285.75
2023-01-08T02:31:24.589Z,100283.28
2023-01-08T02:33:51.190Z,100280.94
2023-01-08T02:36:39.841Z,100278.34
2023-01-08T02:39:14.354Z,100274.94
2023-01-08T02:41:49.771Z,100274.94
2023-01-08T02:44:22.617Z,100284.47
2023-01-08T02:46:52.154Z,100273.72
2023-01-08T02:49:21.696Z,100268.34
2023-01-08T02:51:53.707Z,100272.88
2023-01-08T02:54:24.741Z,100278.16
2023-01-08T02:57:01.173Z,100272.03
2023-01-08T02:59:31.141Z,100272.78
2023-01-08T03:01:58.293Z,100273.72
2023-01-08T03:04:26.283Z,100266.53
2023-01-08T03:06:52.994Z,100269.22
2023-01-08T03:09:20.644Z,100266.53
2023-01-08T03:12:10.278Z,100274.72
2023-01-08T03:14:44.758Z,100271.28
2023-01-08T03:17:38.685Z,100262.97
2023-01-08T03:20:10.071Z,100255.66
2023-01-08T03:22:40.551Z,100263.97
2023-01-08T03:25:08.391Z,100260.63
2023-01-08T03:27:41.788Z,100268.81
2023-01-08T03:30:10.560Z,100276.88
2023-01-08T03:32:41.698Z,100265.38
2023-01-08T03:35:11.491Z,100270.00
2023-01-08T03:37:43.253Z,100265.72
2023-01-08T03:40:14.251Z,100272.91
2023-01-08T03:42:40.873Z,100261.53
2023-01-08T03:45:08.003Z,100258.97
2023-01-08T03:47:35.809Z,100253.47
2023-01-08T03:50:07.168Z,100255.22
2023-01-08T03:52:33.759Z,100243.59
2023-01-08T03:55:00.183Z,100242.50
2023-01-08T03:57:26.945Z,100253.34
2023-01-08T03:59:53.354Z,100256.28
2023-01-08T04:02:19.880Z,100254.69
2023-01-08T04:04:47.618Z,100270.06
2023-01-08T04:07:14.729Z,100257.56
2023-01-08T04:09:41.194Z,100264.56
2023-01-08T04:12:07.707Z,100264.44
2023-01-08T04:14:34.158Z,100264.22
2023-01-08T04:17:00.639Z,100259.72
2023-01-08T04:19:27.070Z,100257.16
2023-01-08T04:21:53.707Z,100258.97
2023-01-08T04:24:20.438Z,100250.91
2023-01-08T04:26:47.027Z,100225.03
2023-01-08T04:29:14.300Z,100227.06
2023-01-08T04:31:40.778Z,100232.78
2023-01-08T04:34:07.197Z,100239.13
2023-01-08T04:36:33.677Z,100242.91
2023-01-08T04:39:00.143Z,100235.78
2023-01-08T04:41:26.612Z,100233.22
2023-01-08T04:43:53.027Z,100238.81
2023-01-08T04:46:19.591Z,100226.47
2023-01-08T04:48:46.104Z,100233.56
2023-01-08T04:51:12.628Z,100218.50
2023-01-08T04:53:41.202Z,100213.25
2023-01-08T04:56:09.882Z,100217.03
2023-01-08T04:58:38.144Z,100218.34
2023-01-08T05:01:19.457Z,100226.84
2023-01-08T05:03:46.612Z,100225.22
2023-01-08T05:06:13.095Z,100226.22
2023-01-08T05:08:39.604Z,100234.25
2023-01-08T05:11:06.184Z,100230.59
2023-01-08T05:13:32.592Z,100226.97
2023-01-08T05:16:00.629Z,100226.09
2023-01-08T05:18:28.350Z,100217.16
2023-01-08T05:20:54.899Z,100211.03
2023-01-08T05:23:21.355Z,100207.41
2023-01-08T05:25:47.821Z,100218.25
2023-01-08T05:28:14.414Z,100218.81
2023-01-08T05:30:40.823Z,100215.59
2023-01-08T05:33:07.295Z,100218.59
2023-01-08T05:35:34.031Z,100219.91
2023-01-08T05:38:00.718Z,100229.22
2023-01-08T05:40:27.193Z,100227.63
2023-01-08T05:42:53.736Z,100225.06
2023-01-08T05:45:20.373Z,100224.19
2023-01-08T05:47:47.064Z,100214.34
2023-01-08T05:50:13.567Z,100223.56
2023-01-08T05:52:40.028Z,100226.47
2023-01-08T05:55:06.716Z,100227.53
2023-01-08T05:57:33.117Z,100226.91
2023-01-08T05:59:59.611Z,100223.56
2023-01-08T06:02:26.072Z,100229.34
2023-01-08T06:04:52.551Z,100229.69
2023-01-08T06:07:19.017Z,100231.94
2023-01-08T06:09:45.478Z,100221.53
2023-01-08T06:12:11.949Z,100220.88
2023-01-08T06:14:38.373Z,100223.00
2023-01-08T06:17:04.806Z,100224.28
2023-01-08T06:19:31.338Z,100223.75
2023-01-08T06:21:57.745Z,100221.06
2023-01-08T06:24:24.275Z,100222.25
2023-01-08T06:26:50.773Z,100208.19
2023-01-08T06:29:17.317Z,100210.13
2023-01-08T06:31:43.811Z,100220.28
2023-01-08T06:34:11.383Z,100222.88
2023-01-08T06:36:37.852Z,100227.56
2023-01-08T06:39:06.710Z,100236.03
2023-01-08T06:41:33.474Z,100234.31
2023-01-08T06:43:59.901Z,100233.47
2023-01-08T06:46:26.476Z,100241.78
2023-01-08T06:48:53.015Z,100235.78
2023-01-08T06:51:19.489Z,100235.78
2023-01-08T06:53:48.398Z,100239.22
2023-01-08T06:56:14.821Z,100233.97
2023-01-08T06:58:41.252Z,100230.41
2023-01-08T07:01:15.884Z,100233.41
2023-01-08T07:03:43.365Z,100245.22
2023-01-08T07:06:15.260Z,100244.34
2023-01-08T07:08:42.109Z,100240.34
2023-01-08T07:11:08.576Z,100243.22
2023-01-08T07:13:35.013Z,100244.38
2023-01-08T07:16:12.558Z,100242.56
2023-01-08T07:18:39.246Z,100249.00
2023-01-08T07:21:07.532Z,100242.56
2023-01-08T07:23:35.096Z,100233.00
2023-01-08T07:26:02.704Z,100236.66
2023-01-08T07:28:30.073Z,100237.53
2023-01-08T07:30:56.758Z,100236.75
2023-01-08T07:33:23.393Z,100238.34
2023-01-08T07:35:54.102Z,100235.69
2023-01-08T07:38:20.771Z,100224.97
2023-01-08T07:40:47.487Z,100211.91
2023-01-08T07:43:14.762Z,100221.72
2023-01-08T07:45:41.372Z,100219.94
2023-01-08T07:48:10.411Z,100221.66
2023-01-08T07:50:39.046Z,100214.47
2023-01-08T07:53:06.809Z,100212.66
2023-01-08T07:55:33.284Z,100211.69
2023-01-08T07:57:59.804Z,100207.84
2023-01-08T08:00:26.907Z,100216.94
2023-01-08T08:02:53.374Z,100219.06
2023-01-08T08:05:19.985Z,100215.44
2023-01-08T08:07:46.395Z,100212.88
2023-01-08T08:10:12.813Z,100217.16
2023-01-08T08:12:39.219Z,100216.09
2023-01-08T08:15:06.407Z,100215.13
2023-01-08T08:17:33.041Z,100216.88
2023-01-08T08:19:59.425Z,100213.97
2023-01-08T08:22:26.306Z,100222.00
2023-01-08T08:24:52.703Z,100213.00
2023-01-08T08:27:19.381Z,100220.09
2023-01-08T08:29:45.831Z,100217.22
2023-01-08T08:32:12.299Z,100213.22
2023-01-08T08:34:38.753Z,100205.69
2023-01-08T08:37:05.190Z,100204.81
2023-01-08T08:39:31.670Z,100209.94
2023-01-08T08:41:58.117Z,100196.78
2023-01-08T08:44:24.610Z,100189.59
2023-01-08T08:46:51.092Z,100182.72
2023-01-08T08:49:17.623Z,100182.94
2023-01-08T08:51:44.136Z,100177.56
2023-01-08T08:54:11.511Z,100169.00
2023-01-08T08:56:37.978Z,100172.50
2023-01-08T08:59:04.516Z,100170.03
2023-01-08T09:01:31.146Z,100175.72
2023-01-08T09:03:57.749Z,100171.97
2023-01-08T09:06:27.459Z,100174.63
2023-01-08T09:08:55.080Z,100168.44
2023-01-08T09:11:21.922Z,100172.63
2023-01-08T09:13:48.439Z,100172.88
2023-01-08T09:16:14.887Z,100171.41
2023-01-08T09:18:41.399Z,100174.63
2023-01-08T09:21:08.608Z,100181.25
2023-01-08T09:23:35.534Z,100171.84
2023-01-08T09:26:03.573Z,100174.00
2023-01-08T09:28:30.135Z,100171.75
2023-01-08T09:30:56.617Z,100175.81
2023-01-08T09:33:23.029Z,100174.31
2023-01-08T09:35:49.480Z,100179.16
2023-01-08T09:38:15.865Z,100173.34
2023-01-08T09:41:05.335Z,100176.34
2023-01-08T09:43:36.368Z,100167.91
2023-01-08T09:46:06.843Z,100163.06
2023-01-08T09:48:37.079Z,100159.91
2023-01-08T09:51:04.177Z,100157.28
2023-01-08T09:53:32.940Z,100158.25
2023-01-08T09:56:11.081Z,100155.22
2023-01-08T09:58:50.708Z,100159.13
2023-01-08T10:01:21.605Z,100158.34
2023-01-08T10:03:54.539Z,100160.78
2023-01-08T10:06:23.517Z,100159.47
2023-01-08T10:08:50.771Z,100148.13
2023-01-08T10:11:17.981Z,100140.19
2023-01-08T10:13:53.885Z,100150.13
2023-01-08T10:16:30.416Z,100143.69
2023-01-08T10:18:58.812Z,100140.69
2023-01-08T10:21:37.510Z,100131.31
2023-01-08T10:24:04.269Z,100125.94
2023-01-08T10:26:37.118Z,100141.78
2023-01-08T10:29:29.950Z,100133.91
2023-01-08T10:31:58.545Z,100137.66
2023-01-08T10:34:33.701Z,100128.16
2023-01-08T10:37:00.359Z,100125.72
2023-01-08T10:39:29.629Z,100122.06
2023-01-08T10:42:03.648Z,100102.41
2023-01-08T10:44:31.449Z,100099.88
2023-01-08T10:47:00.511Z,100089.72
2023-01-08T10:49:29.505Z,100099.16
2023-01-08T10:51:56.422Z,100101.00
2023-01-08T10:54:39.566Z,100090.13
2023-01-08T10:57:25.995Z,100094.94
2023-01-08T10:59:52.924Z,100090.25
2023-01-08T11:02:39.265Z,100085.59
2023-01-08T11:05:10.785Z,100087.31
2023-01-08T11:07:37.678Z,100068.97
2023-01-08T11:10:05.015Z,100084.06
2023-01-08T11:12:41.593Z,100071.19
2023-01-08T11:15:28.895Z,100072.50
2023-01-08T11:18:03.946Z,100062.09
2023-01-08T11:20:31.060Z,100067.56
2023-01-08T11:23:15.905Z,100059.34
2023-01-08T11:25:52.434Z,100055.06
2023-01-08T11:28:26.987Z,100056.81
2023-01-08T11:31:08.062Z,100047.38
2023-01-08T11:33:37.939Z,100049.56
2023-01-08T11:36:15.109Z,100046.69
2023-01-08T11:38:41.667Z,100046.28
2023-01-08T11:41:26.849Z,100037.78
2023-01-08T11:44:15.920Z,100032.69
2023-01-08T11:47:02.808Z,100037.75
2023-01-08T11:49:47.871Z,100024.28
2023-01-08T11:52:30.722Z,100026.28
2023-01-08T11:55:13.927Z,100022.22
2023-01-08T11:58:05.727Z,100017.16
2023-01-08T12:01:10.316Z,100024.06
2023-01-08T12:03:40.203Z,100002.91
2023-01-08T12:06:20.063Z,99996.22
2023-01-08T12:09:10.315Z,99989.53
2023-01-08T12:11:50.494Z,99986.25
2023-01-08T12:14:29.288Z,99984.06
2023-01-08T12:17:39.014Z,99975.84
2023-01-08T12:20:29.938Z,99979.31
2023-01-08T12:23:13.683Z,99986.59
2023-01-08T12:25:52.572Z,99981.66
2023-01-08T12:28:25.282Z,99981.06
2023-01-08T12:31:09.626Z,99985.44
2023-01-08T12:33:48.135Z,99991.16
2023-01-08T12:36:20.778Z,99981.34
2023-01-08T12:38:55.667Z,99984.34
2023-01-08T12:41:23.764Z,99984.03
2023-01-08T12:43:59.370Z,99976.13
2023-01-08T12:46:29.163Z,99972.06
2023-01-08T12:48:56.662Z,99959.78
2023-01-08T12:51:37.877Z,99959.44
2023-01-08T12:54:20.140Z,99962.47
2023-01-08T12:56:55.527Z,99951.41
2023-01-08T12:59:59.871Z,99942.69
2023-01-08T13:02:58.203Z,99941.41
2023-01-08T13:05:24.519Z,99943.66
2023-01-08T13:07:54.079Z,99937.34
2023-01-08T13:10:28.759Z,99934.13
2023-01-08T13:12:57.444Z,99941.34
2023-01-08T13:15:29.322Z,99943.59
2023-01-08T13:17:58.200Z,99932.81
2023-01-08T13:20:30.723Z,99930.53
2023-01-08T13:23:00.236Z,99932.22
2023-01-08T13:25:34.424Z,99925.41
2023-01-08T13:28:17.024Z,99921.72
2023-01-08T13:30:46.302Z,99912.91
2023-01-08T13:33:36.196Z,99916.66
2023-01-08T13:36:23.184Z,99914.00
2023-01-08T13:39:23.946Z,99912.44
2023-01-08T13:42:18.848Z,99905.88
2023-01-08T13:44:57.833Z,99896.59
2023-01-08T13:47:37.102Z,99890.50
2023-01-08T13:50:18.066Z,99881.84
2023-01-08T13:52:48.059Z,99886.78
2023-01-08T13:55:28.630Z,99878.25
2023-01-08T13:58:00.979Z,99883.03
2023-01-08T14:00:42.655Z,99879.63
2023-01-08T14:03:40.106Z,99880.84
2023-01-08T14:06:18.787Z,99875.88
2023-01-08T14:08:56.954Z,99873.31
2023-01-08T14:11:27.950Z,99867.91
2023-01-08T14:13:54.863Z,99873.56
2023-01-08T14:16:22.280Z,99876.97
2023-01-08T14:18:50.448Z,99875.09
2023-01-08T14:21:22.683Z,99869.88
2023-01-08T14:23:51.053Z,99873.09
2023-01-08T14:26:35.479Z,99858.06
2023-01-08T14:29:04.733Z,99859.91
2023-01-08T14:31:31.217Z,99859.44
2023-01-08T14:33:59.887Z,99858.72
2023-01-08T14:36:27.083Z,99853.44
2023-01-08T14:38:53.735Z,99853.41
2023-01-08T14:41:52.750Z,99845.41
2023-01-08T14:44:29.076Z,99853.00
2023-01-08T14:47:03.347Z,99843.75
2023-01-08T14:49:32.990Z,99840.13
2023-01-08T14:52:01.620Z,99835.28
2023-01-08T14:54:33.742Z,99827.84
2023-01-08T14:57:01.660Z,99833.63
2023-01-08T14:59:33.613Z,99840.34
2023-01-08T15:02:02.671Z,99831.81
2023-01-08T15:04:31.036Z,99820.44
2023-01-08T15:07:20.168Z,99817.28
2023-01-08T15:09:56.695Z,99815.25
2023-01-08T15:12:25.864Z,99813.66
2023-01-08T15:14:54.961Z,99806.59
2023-01-08T15:17:25.097Z,99807.06
2023-01-08T15:19:55.031Z,99802.34
2023-01-08T15:22:27.184Z,99808.94
2023-01-08T15:25:00.650Z,99803.97
2023-01-08T15:27:27.470Z,99796.59
2023-01-08T15:30:03.718Z,99804.44
2023-01-08T15:32:36.853Z,99805.81
2023-01-08T15:35:17.754Z,99809.22
2023-01-08T15:37:44.588Z,99802.53
2023-01-08T15:40:12.141Z,99799.97
2023-01-08T15:42:57.396Z,99796.41
2023-01-08T15:45:29.391Z,99804.25
2023-01-08T15:47:55.879Z,99807.28
2023-01-08T15:50:24.578Z,99791.69
2023-01-08T15:52:51.150Z,99801.81
2023-01-08T15:55:22.990Z,99797.69
2023-01-08T15:57:50.241Z,99797.06
2023-01-08T16:00:18.855Z,99795.47
2023-01-08T16:02:48.013Z,99795.47
2023-01-08T16:05:16.302Z,99784.25
2023-01-08T16:07:43.258Z,99780.81
2023-01-08T16:10:10.055Z,99776.66
2023-01-08T16:12:36.537Z,99776.66
2023-01-08T16:15:03.272Z,99763.25
2023-01-08T16:17:30.510Z,99773.28
2023-01-08T16:19:56.975Z,99769.97
2023-01-08T16:22:23.448Z,99777.16
2023-01-08T16:24:49.918Z,99777.41
2023-01-08T16:27:16.430Z,99773.50
2023-01-08T16:29:42.909Z,99771.19
2023-01-08T16:32:09.700Z,99766.28
2023-01-08T16:34:36.841Z,99766.66
2023-01-08T16:37:03.420Z,99768.72
2023-01-08T16:39:29.924Z,99762.59
2023-01-08T16:41:56.327Z,99765.03
2023-01-08T16:44:26.950Z,99763.97
2023-01-08T16:46:53.677Z,99765.53
2023-01-08T16:49:20.320Z,99759.59
2023-01-08T16:51:46.921Z,99771.53
2023-01-08T16:54:14.893Z,99773.94
2023-01-08T16:56:41.500Z,99783.94
2023-01-08T16:59:22.408Z,99772.34
2023-01-08T17:01:50.393Z,99781.63
2023-01-08T17:04:17.066Z,99772.63
2023-01-08T17:06:43.516Z,99772.63
2023-01-08T17:09:11.621Z,99766.56
2023-01-08T17:11:38.642Z,99757.16
2023-01-08T17:14:05.140Z,99757.88
2023-01-08T17:16:31.594Z,99746.19
2023-01-08T17:18:58.079Z,99744.22
2023-01-08T17:21:24.583Z,99742.03
2023-01-08T17:23:51.215Z,99726.41
2023-01-08T17:26:17.866Z,99730.41
2023-01-08T17:28:45.040Z,99728.06
2023-01-08T17:31:14.381Z,99726.84
2023-01-08T17:33:40.929Z,99720.50
2023-01-08T17:36:17.061Z,99724.78
2023-01-08T17:38:43.617Z,99719.88
2023-01-08T17:41:10.951Z,99716.09
2023-01-08T17:43:38.352Z,99711.56
2023-01-08T17:46:06.907Z,99709.97
2023-01-08T17:48:34.256Z,99703.78
2023-01-08T17:51:07.939Z,99698.53
2023-01-08T17:53:35.729Z,99694.38
2023-01-08T17:56:05.752Z,99692.06
2023-01-08T17:58:32.306Z,99687.78
2023-01-08T18:01:01.289Z,99677.31
2023-01-08T18:03:27.891Z,99673.19
2023-01-08T18:05:54.285Z,99667.34
2023-01-08T18:08:20.765Z,99670.50
2023-01-08T18:10:47.607Z,99670.53
2023-01-08T18:13:14.125Z,99661.50
2023-01-08T18:15:40.588Z,99661.00
2023-01-08T18:18:07.059Z,99659.16
2023-01-08T18:20:33.567Z,99644.53
2023-01-08T18:23:00.040Z,99648.56
2023-01-08T18:25:26.617Z,99647.09
2023-01-08T18:27:53.576Z,99642.25
2023-01-08T18:30:20.171Z,99641.50
2023-01-08T18:32:46.653Z,99637.34
2023-01-08T18:35:15.071Z,99635.75
2023-01-08T18:37:41.815Z,99637.06
2023-01-08T18:40:08.864Z,99628.06
2023-01-08T18:42:35.342Z,99625.50
2023-01-08T18:45:03.252Z,99623.78
2023-01-08T18:47:30.738Z,99616.84
2023-01-08T18:49:59.926Z,99613.94
2023-01-08T18:52:26.450Z,99613.06
2023-01-08T18:54:53.575Z,99601.75
2023-01-08T18:57:20.122Z,99601.88
2023-01-08T18:59:48.573Z,99600.88
2023-01-08T19:02:31.042Z,99592.09
2023-01-08T19:04:57.522Z,99584.69
2023-01-08T19:07:24.055Z,99589.31
2023-01-08T19:09:50.451Z,99585.91
2023-01-08T19:12:16.922Z,99585.06
2023-01-08T19:14:45.219Z,99583.34
2023-01-08T19:17:12.784Z,99585.66
2023-01-08T19:19:39.270Z,99578.00
2023-01-08T19:22:05.678Z,99579.69
2023-01-08T19:24:32.137Z,99571.53
2023-01-08T19:26:58.691Z,99572.50
2023-01-08T19:29:25.147Z,99573.63
2023-01-08T19:31:51.864Z,99572.63
2023-01-08T19:34:18.376Z,99563.47
2023-01-08T19:36:44.854Z,99563.25
2023-01-08T19:39:11.441Z,99565.41
2023-01-08T19:41:57.602Z,99547.13
2023-01-08T19:44:24.674Z,99549.28
2023-01-08T19:46:51.203Z,99550.50
2023-01-08T19:49:17.751Z,99548.41
2023-01-08T19:51:44.231Z,99548.00
2023-01-08T19:54:11.999Z,99544.25
2023-01-08T19:56:38.471Z,99534.84
2023-01-08T19:59:04.883Z,99522.25
2023-01-08T20:01:33.561Z,99513.09
2023-01-08T20:04:00.535Z,99522.25
2023-01-08T20:06:27.390Z,99517.41
2023-01-08T20:08:58.975Z,99514.00
2023-01-08T20:11:26.647Z,99511.69
2023-01-08T20:13:55.357Z,99513.19
2023-01-08T20:16:23.834Z,99503.44
2023-01-08T20:18:50.368Z,99506.81
2023-01-08T20:21:21.800Z,99506.94
2023-01-08T20:23:48.794Z,99499.88
2023-01-08T20:26:19.644Z,99497.34
2023-01-08T20:28:46.769Z,99500.38
2023-01-08T20:31:16.385Z,99498.28
2023-01-08T20:33:43.477Z,99492.69
2023-01-08T20:36:13.029Z,99491.31
2023-01-08T20:38:39.822Z,99490.69
2023-01-08T20:41:07.137Z,99484.34
2023-01-08T20:43:34.643Z,99483.47
2023-01-08T20:46:01.755Z,99486.88
2023-01-08T20:48:32.054Z,99478.81
2023-01-08T20:51:03.287Z,99475.06
2023-01-08T20:53:30.421Z,99475.78
2023-01-08T20:56:02.651Z,99470.16
2023-01-08T20:58:29.118Z,99464.50
2023-01-08T21:00:55.623Z,99460.25
2023-01-08T21:03:22.153Z,99461.75
2023-01-08T21:05:49.039Z,99455.34
2023-01-08T21:08:15.499Z,99456.56
2023-01-08T21:10:41.917Z,99454.53
2023-01-08T21:13:09.742Z,99452.22
2023-01-08T21:15:37.279Z,99451.75
2023-01-08T21:18:04.027Z,99446.63
2023-01-08T21:20:30.448Z,99444.94
2023-01-08T21:22:57.673Z,99434.00
2023-01-08T21:25:24.136Z,99443.28
2023-01-08T21:27:50.543Z,99436.09
2023-01-08T21:30:17.235Z,99430.84
2023-01-08T21:32:43.689Z,99428.19
2023-01-08T21:35:10.133Z,99427.31
2023-01-08T21:37:37.168Z,99424.28
2023-01-08T21:40:04.829Z,99409.88
2023-01-08T21:42:49.871Z,99400.28
2023-01-08T21:45:25.064Z,99404.91
2023-01-08T21:47:52.512Z,99397.47
2023-01-08T21:50:19.486Z,99399.75
2023-01-08T21:53:04.337Z,99393.19
2023-01-08T21:55:31.037Z,99400.09
2023-01-08T21:57:57.450Z,99388.16
2023-01-08T22:00:24.975Z,99384.72
2023-01-08T22:02:51.562Z,99377.41
2023-01-08T22:05:18.121Z,99389.00
2023-01-08T22:07:44.635Z,99378.84
2023-01-08T22:10:11.395Z,99384.66
2023-01-08T22:12:37.925Z,99386.84
2023-01-08T22:15:04.764Z,99379.13
2023-01-08T22:17:31.241Z,99381.56
2023-01-08T22:19:58.012Z,99385.56
2023-01-08T22:22:24.540Z,99374.69
2023-01-08T22:24:52.330Z,99367.22
2023-01-08T22:27:19.204Z,99369.78
2023-01-08T22:29:46.948Z,99379.50
2023-01-08T22:32:13.733Z,99369.78
2023-01-08T22:34:40.317Z,99372.72
2023-01-08T22:37:06.818Z,99388.97
2023-01-08T22:39:33.212Z,99400.19
2023-01-08T22:42:00.086Z,99392.69
2023-01-08T22:44:26.605Z,99392.94
2023-01-08T22:46:53.123Z,99398.53
2023-01-08T22:49:19.600Z,99399.81
2023-01-08T22:51:46.067Z,99390.03
2023-01-08T22:54:13.565Z,99395.66
2023-01-08T22:56:40.448Z,99396.94
2023-01-08T22:59:06.979Z,99394.47
2023-01-08T23:01:33.626Z,99399.13
2023-01-08T23:04:01.174Z,99397.41
2023-01-08T23:06:30.046Z,99395.00
2023-01-08T23:08:57.596Z,99395.13
2023-01-08T23:11:27.907Z,99387.22
2023-01-08T23:13:55.196Z,99381.25
2023-01-08T23:16:25.135Z,99391.00
2023-01-08T23:18:53.642Z,99392.97
2023-01-08T23:21:21.992Z,99400.28
2023-01-08T23:23:48.529Z,99406.75
2023-01-08T23:26:19.276Z,99412.09
2023-01-08T23:28:47.557Z,99420.16
2023-01-08T23:31:17.682Z,99415.78
2023-01-08T23:33:44.371Z,99419.53
2023-01-08T23:36:17.643Z,99423.22
2023-01-08T23:38:46.234Z,99415.56
2023-01-08T23:41:13.114Z,99422.16
2023-01-08T23:43:41.115Z,99421.66
2023-01-08T23:46:08.011Z,99424.72
2023-01-08T23:48:34.550Z,99427.69
2023-01-08T23:51:01.373Z,99426.22
2023-01-08T23:53:27.979Z,99426.59
2023-01-08T23:55:54.463Z,99425.97
2023-01-08T23:58:21.493Z,99430.59
